Time;durP1;ratioP1;P1;durP2;ratioP2;P2;SDS_P1;SDS_P2;PMS_P1;PMS_P2;Temp;Humidity;BMP_temperature;BMP_pressure;BME280_temperature;BME280_humidity;BME280_pressure;Samples;Min_cycle;Max_cycle;Signal;HPM_P1;HPM_P2
2022/06/07 00:00:47;;;;;;;1247.47;999.90;;;11.60;91.90;;;;;;4983496;28;20289;-76
2022/06/07 00:03:13;;;;;;;1435.77;999.90;;;11.60;91.90;;;;;;4970522;28;20313;-77
2022/06/07 00:05:43;;;;;;;1240.10;999.90;;;11.60;91.90;;;;;;4986791;28;20145;-76
2022/06/07 00:08:10;;;;;;;1417.13;999.90;;;11.60;91.90;;;;;;4987290;28;20678;-77
2022/06/07 00:10:35;;;;;;;1999.90;999.90;;;11.60;92.30;;;;;;4970126;28;20564;-77
2022/06/07 00:13:01;;;;;;;1561.73;999.90;;;11.60;92.20;;;;;;4955027;28;20292;-77
2022/06/07 00:15:27;;;;;;;1999.90;999.90;;;11.60;92.00;;;;;;4954776;28;20116;-76
2022/06/07 00:17:52;;;;;;;1788.20;999.90;;;11.60;90.80;;;;;;4978827;28;20522;-77
2022/06/07 00:20:19;;;;;;;1999.90;999.90;;;11.60;90.10;;;;;;4978516;28;20463;-77
2022/06/07 00:22:46;;;;;;;1999.90;999.90;;;11.70;88.80;;;;;;4979197;28;20412;-77
2022/06/07 00:25:15;;;;;;;1988.30;999.90;;;11.60;89.70;;;;;;4970925;28;20285;-76
2022/06/07 00:27:42;;;;;;;1999.90;999.90;;;11.60;89.50;;;;;;4971109;28;20285;-77
2022/06/07 00:30:09;;;;;;;1999.90;999.90;;;11.60;89.40;;;;;;4970270;28;20298;-76
2022/06/07 00:32:35;;;;;;;1999.90;999.90;;;11.60;89.80;;;;;;4953866;28;20285;-75
2022/06/07 00:35:02;;;;;;;1661.13;999.90;;;11.60;89.20;;;;;;4966685;28;20294;-75
2022/06/07 00:37:27;;;;;;;1803.57;999.90;;;11.60;88.50;;;;;;4969941;28;20289;-75
2022/06/07 00:39:53;;;;;;;1748.20;999.90;;;11.60;89.40;;;;;;4953693;28;20289;-75
2022/06/07 00:42:18;;;;;;;1898.93;999.90;;;11.60;90.10;;;;;;4959377;28;20076;-75
2022/06/07 00:44:46;;;;;;;1999.90;999.90;;;11.60;90.20;;;;;;4953238;28;20422;-75
2022/06/07 00:47:27;;;;;;;1999.90;999.90;;;11.60;90.60;;;;;;4955993;28;20581;-76
2022/06/07 00:49:58;;;;;;;1999.90;999.90;;;11.70;90.70;;;;;;4971282;28;20420;-75
2022/06/07 00:52:27;;;;;;;1999.90;999.90;;;11.60;90.60;;;;;;4981295;28;20811;-75
2022/06/07 00:54:54;;;;;;;1999.90;999.90;;;11.70;89.80;;;;;;4966165;28;20828;-77
2022/06/07 00:57:21;;;;;;;1999.90;999.90;;;11.70;89.10;;;;;;4976952;28;20297;-75
2022/06/07 00:59:48;;;;;;;1999.90;999.90;;;11.70;88.90;;;;;;4963539;28;20293;-75
2022/06/07 01:02:14;;;;;;;1999.90;999.90;;;11.70;89.20;;;;;;4952870;28;20369;-75
2022/06/07 01:04:39;;;;;;;1999.90;999.90;;;11.70;89.40;;;;;;4952658;28;20310;-76
2022/06/07 01:12:34;;;;;;;1999.90;999.90;;;11.70;90.20;;;;;;4950967;28;20282;-76
2022/06/07 01:15:00;;;;;;;1999.90;999.90;;;11.70;89.90;;;;;;4977381;28;20324;-76
2022/06/07 01:17:26;;;;;;;1999.90;999.90;;;11.70;90.20;;;;;;4960469;28;20377;-76
2022/06/07 01:19:52;;;;;;;1999.90;999.90;;;11.70;89.80;;;;;;4973511;28;21046;-76
2022/06/07 01:22:18;;;;;;;1999.90;999.90;;;11.70;89.50;;;;;;4954348;28;20038;-76
2022/06/07 01:24:44;;;;;;;1999.90;999.90;;;11.70;89.60;;;;;;4990161;28;20285;-76
2022/06/07 01:27:11;;;;;;;1993.83;999.90;;;11.70;89.30;;;;;;4974236;28;20300;-77
2022/06/07 01:29:38;;;;;;;1999.90;999.90;;;11.70;88.10;;;;;;4987753;28;20030;-76
2022/06/07 01:32:05;;;;;;;1653.37;999.90;;;11.70;88.40;;;;;;4989818;28;20293;-76
2022/06/07 01:34:32;;;;;;;1999.90;999.90;;;11.80;88.60;;;;;;4988808;28;20408;-76
2022/06/07 01:36:59;;;;;;;1999.90;999.90;;;11.70;88.90;;;;;;4989929;28;20702;-76
2022/06/07 01:42:12;;;;;;;1999.90;999.90;;;11.80;87.80;;;;;;4997814;28;20388;-76
2022/06/07 01:44:41;;;;;;;1999.90;999.90;;;11.80;87.80;;;;;;4988847;28;20046;-76
2022/06/07 01:47:10;;;;;;;1999.90;999.90;;;11.80;88.40;;;;;;4983079;28;20289;-76
2022/06/07 01:49:37;;;;;;;1999.90;999.90;;;11.80;88.60;;;;;;4969226;28;20281;-77
2022/06/07 01:52:04;;;;;;;1999.90;999.90;;;11.80;88.30;;;;;;4986031;28;20364;-76
2022/06/07 01:54:30;;;;;;;1999.90;999.90;;;11.80;88.20;;;;;;4973196;28;20285;-77
2022/06/07 01:56:56;;;;;;;1999.90;999.90;;;11.80;87.60;;;;;;4980678;28;20364;-77
2022/06/07 01:59:22;;;;;;;1752.00;999.90;;;11.80;87.60;;;;;;4958336;28;20085;-77
2022/06/07 02:01:49;;;;;;;1999.90;999.90;;;11.80;87.90;;;;;;4979972;28;20065;-77
2022/06/07 02:04:15;;;;;;;1972.03;999.90;;;11.80;87.60;;;;;;4972207;28;20498;-76
2022/06/07 02:06:41;;;;;;;1889.43;999.90;;;11.80;87.90;;;;;;4957817;28;20293;-74
2022/06/07 02:09:07;;;;;;;1870.60;999.90;;;11.90;88.00;;;;;;4972893;28;20038;-75
2022/06/07 02:11:34;;;;;;;1999.90;999.90;;;11.90;87.10;;;;;;4972259;28;20367;-75
2022/06/07 02:14:00;;;;;;;1999.90;999.90;;;11.90;85.90;;;;;;4961638;28;20328;-76
2022/06/07 02:16:26;;;;;;;1999.90;999.90;;;11.90;86.10;;;;;;4973163;28;20317;-76
2022/06/07 02:18:52;;;;;;;1999.90;999.90;;;11.90;85.70;;;;;;4955451;28;20070;-76
2022/06/07 02:21:19;;;;;;;1999.90;999.90;;;11.90;84.70;;;;;;4969635;28;20042;-75
2022/06/07 02:23:45;;;;;;;1999.90;999.90;;;11.90;85.40;;;;;;4963396;28;20054;-75
2022/06/07 02:26:39;;;;;;;1999.90;999.90;;;11.80;87.10;;;;;;4986663;28;20286;-75
2022/06/07 02:29:25;;;;;;;1999.90;999.90;;;11.90;86.10;;;;;;4964782;28;20391;-76
2022/06/07 02:32:24;;;;;;;1999.90;999.90;;;11.90;83.80;;;;;;4968054;28;20373;-76
2022/06/07 02:34:53;;;;;;;1999.90;999.90;;;11.90;84.70;;;;;;4980570;28;20302;-76
2022/06/07 02:37:20;;;;;;;1999.90;999.90;;;11.90;84.50;;;;;;4976893;28;20309;-76
2022/06/07 02:39:46;;;;;;;1999.90;999.90;;;11.90;84.10;;;;;;4967755;28;20658;-75
2022/06/07 02:42:16;;;;;;;1999.90;999.90;;;11.90;85.70;;;;;;4949237;28;20309;-76
2022/06/07 02:44:42;;;;;;;1999.90;999.90;;;11.90;82.90;;;;;;4987479;28;20043;-76
2022/06/07 02:47:08;;;;;;;1999.90;999.90;;;11.90;82.70;;;;;;4945362;28;20285;-76
2022/06/07 02:49:33;;;;;;;1999.90;999.90;;;11.80;83.00;;;;;;4967234;28;20642;-76
2022/06/07 02:51:59;;;;;;;1999.90;999.90;;;11.70;84.50;;;;;;4960291;28;20035;-76
2022/06/07 02:54:25;;;;;;;1999.90;999.90;;;11.60;86.30;;;;;;4970572;28;20471;-76
2022/06/07 02:56:51;;;;;;;1999.90;999.90;;;11.60;87.70;;;;;;4987655;28;20069;-76
2022/06/07 02:59:17;;;;;;;1999.90;999.90;;;11.40;89.30;;;;;;4956820;28;20086;-76
2022/06/07 03:01:42;;;;;;;1836.07;999.90;;;11.30;91.00;;;;;;4954845;28;20326;-75
2022/06/07 03:04:08;;;;;;;1192.47;999.90;;;11.20;92.50;;;;;;4953006;28;20411;-76
2022/06/07 03:06:34;;;;;;;1354.80;999.90;;;11.10;93.40;;;;;;4977816;28;20038;-76
2022/06/07 03:08:59;;;;;;;1999.90;999.90;;;11.00;94.30;;;;;;4960298;28;20327;-76
2022/06/07 03:11:25;;;;;;;1999.90;999.90;;;11.00;95.00;;;;;;4946373;28;20043;-76
2022/06/07 03:13:52;;;;;;;1841.13;999.90;;;11.00;95.40;;;;;;4955376;28;20048;-75
2022/06/07 03:16:17;;;;;;;1794.83;999.90;;;10.90;95.70;;;;;;4980895;28;20030;-76
2022/06/07 03:18:43;;;;;;;1999.90;999.90;;;10.90;96.20;;;;;;4959526;28;20297;-75
2022/06/07 03:21:09;;;;;;;1837.70;999.90;;;10.80;96.40;;;;;;4948073;28;20097;-76
2022/06/07 03:23:35;;;;;;;1299.40;999.90;;;10.80;96.50;;;;;;4952581;28;20153;-76
2022/06/07 03:26:10;;;;;;;1999.90;999.90;;;10.70;96.50;;;;;;4949397;28;20045;-76
2022/06/07 03:28:36;;;;;;;;;;;10.60;96.70;;;;;;4966507;28;20481;-75
2022/06/07 03:31:04;;;;;;;1054.23;945.73;;;10.60;97.00;;;;;;4978150;28;20068;-75
2022/06/07 03:33:31;;;;;;;1225.13;999.90;;;10.50;97.30;;;;;;4967656;28;20858;-75
2022/06/07 03:36:04;;;;;;;1093.13;975.13;;;10.50;97.40;;;;;;4971021;28;20288;-75
2022/06/07 03:38:30;;;;;;;1541.57;999.90;;;10.50;97.80;;;;;;4953770;28;20786;-75
2022/06/07 03:40:56;;;;;;;1369.10;999.90;;;10.50;97.90;;;;;;4954332;28;20343;-74
2022/06/07 03:43:22;;;;;;;1660.33;999.90;;;10.50;97.90;;;;;;4970451;28;20074;-75
2022/06/07 03:45:47;;;;;;;1999.90;999.90;;;10.50;97.90;;;;;;4960931;28;20864;-75
2022/06/07 03:48:13;;;;;;;1710.57;999.90;;;10.50;98.10;;;;;;4950706;28;20042;-75
2022/06/07 03:50:39;;;;;;;1113.97;999.90;;;10.60;98.30;;;;;;4962364;28;20125;-75
2022/06/07 03:53:05;;;;;;;1712.50;999.90;;;10.70;98.40;;;;;;4944486;28;20045;-75
2022/06/07 03:55:30;;;;;;;1198.17;982.97;;;10.70;98.30;;;;;;4944418;28;20042;-75
2022/06/07 03:57:56;;;;;;;1858.57;999.90;;;10.80;97.90;;;;;;4959120;28;20304;-75
2022/06/07 04:00:22;;;;;;;1884.20;999.90;;;10.80;97.50;;;;;;4965670;28;20050;-75
2022/06/07 04:02:48;;;;;;;1999.90;999.90;;;10.90;97.00;;;;;;4970736;28;20045;-75
2022/06/07 04:05:14;;;;;;;1126.73;998.80;;;10.90;96.50;;;;;;4969420;28;20043;-74
2022/06/07 04:10:24;;;;;;;1999.90;999.90;;;10.90;94.20;;;;;;4964950;28;20361;-75
2022/06/07 04:12:49;;;;;;;1999.90;999.90;;;10.90;92.30;;;;;;4945967;28;20428;-75
2022/06/07 04:15:15;;;;;;;1272.10;999.90;;;10.90;91.90;;;;;;4954823;28;20038;-75
2022/06/07 04:17:41;;;;;;;1999.90;999.90;;;10.90;91.10;;;;;;4970469;28;20046;-75
2022/06/07 04:20:07;;;;;;;1999.90;999.90;;;10.90;90.00;;;;;;4978116;28;20289;-75
2022/06/07 04:22:33;;;;;;;1259.63;999.90;;;10.90;89.70;;;;;;4967901;28;20503;-75
2022/06/07 04:24:59;;;;;;;1999.90;999.90;;;10.90;89.50;;;;;;4970329;28;20281;-74
2022/06/07 04:27:24;;;;;;;1999.90;999.90;;;11.00;89.00;;;;;;4950620;28;20534;-75
2022/06/07 04:29:51;;;;;;;1999.90;999.90;;;11.00;89.10;;;;;;4966131;28;20142;-75
2022/06/07 04:32:17;;;;;;;1493.07;999.90;;;11.00;89.10;;;;;;4950141;28;20411;-75
2022/06/07 04:34:42;;;;;;;1574.87;999.90;;;11.00;88.50;;;;;;4970088;28;20504;-75
2022/06/07 04:37:08;;;;;;;1999.90;999.90;;;11.00;88.60;;;;;;4977187;28;20042;-75
2022/06/07 04:39:34;;;;;;;1672.33;999.90;;;11.10;88.50;;;;;;4964450;28;20046;-75
2022/06/07 04:41:59;;;;;;;1999.90;999.90;;;11.10;88.80;;;;;;4965218;28;20046;-75
2022/06/07 04:44:25;;;;;;;1999.90;999.90;;;11.10;88.80;;;;;;4950351;28;20460;-75
2022/06/07 04:46:51;;;;;;;1999.90;999.90;;;11.20;88.70;;;;;;4953923;28;20042;-76
2022/06/07 04:49:16;;;;;;;1769.10;999.90;;;11.20;89.20;;;;;;4953423;28;20133;-75
2022/06/07 04:51:42;;;;;;;1999.90;999.90;;;11.20;89.40;;;;;;4984242;28;20060;-75
2022/06/07 04:54:09;;;;;;;1999.90;999.90;;;11.20;89.80;;;;;;4968838;28;21012;-75
2022/06/07 04:56:36;;;;;;;1999.90;999.90;;;11.20;90.00;;;;;;4951603;28;20392;-76
2022/06/07 04:59:04;;;;;;;1999.90;999.90;;;11.20;90.70;;;;;;4960695;28;20301;-75
2022/06/07 05:01:33;;;;;;;1999.90;988.13;;;11.10;91.40;;;;;;4970404;28;20305;-76
2022/06/07 05:03:59;;;;;;;1999.90;999.90;;;11.00;91.60;;;;;;4983286;28;20289;-75
2022/06/07 05:06:34;;;;;;;1999.90;999.90;;;11.00;91.60;;;;;;4961705;28;20034;-76
2022/06/07 05:09:05;;;;;;;1999.90;999.90;;;11.00;92.30;;;;;;4967258;28;20503;-75
2022/06/07 05:11:31;;;;;;;1999.90;999.90;;;10.90;93.00;;;;;;4994217;28;20046;-75
2022/06/07 05:13:59;;;;;;;1999.90;999.90;;;10.90;93.60;;;;;;4957800;28;20321;-75
2022/06/07 05:16:25;;;;;;;1595.17;999.90;;;10.90;94.10;;;;;;4971554;28;20086;-76
2022/06/07 05:18:53;;;;;;;1871.23;999.90;;;10.90;94.90;;;;;;4997858;28;20286;-75
2022/06/07 05:21:20;;;;;;;1999.90;999.90;;;10.90;95.70;;;;;;4965804;28;20296;-75
2022/06/07 05:23:47;;;;;;;1999.90;999.90;;;10.90;96.30;;;;;;4963274;28;20306;-75
2022/06/07 05:26:19;;;;;;;1949.78;999.90;;;11.00;96.80;;;;;;4976723;28;20411;-75
2022/06/07 05:28:45;;;;;;;1642.90;999.90;;;11.00;97.10;;;;;;4960137;28;20177;-75
2022/06/07 05:31:10;;;;;;;1999.90;999.90;;;11.00;97.50;;;;;;4949326;28;20054;-75
2022/06/07 05:33:36;;;;;;;1999.90;999.90;;;11.00;97.60;;;;;;4969464;28;20050;-76
2022/06/07 05:36:04;;;;;;;1802.27;999.90;;;11.00;97.80;;;;;;4964852;28;20125;-75
2022/06/07 05:38:30;;;;;;;1659.00;999.90;;;11.10;98.10;;;;;;4966685;28;20077;-76
2022/06/07 05:40:55;;;;;;;1999.90;999.90;;;11.00;98.00;;;;;;4979268;28;20281;-75
2022/06/07 05:43:22;;;;;;;1713.70;999.90;;;11.00;98.10;;;;;;4949584;28;20671;-75
2022/06/07 05:45:49;;;;;;;1699.83;999.90;;;11.00;98.30;;;;;;4985751;28;20161;-75
2022/06/07 05:48:15;;;;;;;1918.87;999.90;;;11.00;98.70;;;;;;4969371;28;20300;-75
2022/06/07 05:50:48;;;;;;;1999.90;999.90;;;11.00;99.00;;;;;;4958562;28;20283;-75
2022/06/07 05:53:14;;;;;;;1999.90;999.90;;;11.00;99.30;;;;;;4967978;28;20308;-75
2022/06/07 05:55:41;;;;;;;1999.90;999.90;;;11.10;99.40;;;;;;4986116;28;20497;-76
2022/06/07 05:58:07;;;;;;;1404.30;999.90;;;11.10;99.30;;;;;;4947951;28;20313;-75
2022/06/07 06:00:34;;;;;;;1503.30;999.90;;;11.10;99.20;;;;;;4965123;28;20377;-75
2022/06/07 06:03:00;;;;;;;1999.90;999.90;;;11.10;99.30;;;;;;4958763;28;20309;-75
2022/06/07 06:05:25;;;;;;;1999.90;999.90;;;11.10;99.10;;;;;;4968140;28;20286;-75
2022/06/07 06:10:35;;;;;;;1999.90;999.90;;;11.10;98.80;;;;;;4974690;28;20042;-75
2022/06/07 06:13:01;;;;;;;1999.90;999.90;;;11.10;98.60;;;;;;4973115;28;20285;-75
2022/06/07 06:15:27;;;;;;;1999.90;999.90;;;11.10;98.60;;;;;;4971398;28;20562;-75
2022/06/07 06:17:53;;;;;;;1999.90;999.90;;;11.10;98.40;;;;;;4952864;28;20071;-75
2022/06/07 06:20:20;;;;;;;1999.90;999.90;;;11.20;98.40;;;;;;4971492;28;20133;-76
2022/06/07 06:22:46;;;;;;;1493.40;999.90;;;11.30;98.40;;;;;;4972424;28;20053;-75
2022/06/07 06:25:12;;;;;;;1324.60;999.90;;;11.30;98.30;;;;;;4972711;28;20798;-76
2022/06/07 06:27:38;;;;;;;1348.87;999.90;;;11.40;98.10;;;;;;4988438;28;20285;-76
2022/06/07 06:30:05;;;;;;;1428.73;999.90;;;11.50;98.30;;;;;;4971066;28;20281;-75
2022/06/07 06:32:31;;;;;;;1522.63;999.90;;;11.50;97.80;;;;;;4988345;28;20285;-76
2022/06/07 06:34:57;;;;;;;1386.00;999.90;;;11.60;97.60;;;;;;4970282;28;20297;-76
2022/06/07 06:37:23;;;;;;;1423.73;999.90;;;11.60;97.70;;;;;;4987444;28;20080;-76
2022/06/07 06:39:49;;;;;;;1999.90;999.90;;;11.70;97.60;;;;;;4979500;28;20137;-76
2022/06/07 06:42:15;;;;;;;1223.57;999.90;;;11.70;96.80;;;;;;4899491;29;20058;-75
2022/06/07 06:44:41;;;;;;;1999.90;999.90;;;11.70;97.10;;;;;;4967431;28;20047;-76
2022/06/07 06:47:07;;;;;;;1422.77;999.90;;;11.90;97.00;;;;;;4952711;28;20345;-75
2022/06/07 06:49:33;;;;;;;1686.47;999.90;;;12.00;97.10;;;;;;4950054;28;20109;-75
2022/06/07 06:51:59;;;;;;;1506.63;999.90;;;12.00;96.20;;;;;;4949755;28;20299;-75
2022/06/07 06:54:25;;;;;;;1999.90;999.90;;;12.10;95.60;;;;;;4950389;28;20293;-75
2022/06/07 06:56:52;;;;;;;1201.37;999.90;;;12.10;95.40;;;;;;4967998;28;20871;-75
2022/06/07 06:59:19;;;;;;;1499.33;999.90;;;12.10;95.10;;;;;;4936620;28;20326;-75
2022/06/07 07:01:45;;;;;;;1626.73;999.90;;;12.10;95.30;;;;;;4968467;28;20620;-75
2022/06/07 07:04:15;;;;;;;1999.90;999.90;;;12.20;94.60;;;;;;4952464;28;20370;-75
2022/06/07 07:06:41;;;;;;;1999.90;999.90;;;12.20;94.50;;;;;;4967885;28;20046;-75
2022/06/07 07:09:08;;;;;;;1935.50;999.90;;;12.30;94.40;;;;;;4968246;28;20416;-75
2022/06/07 07:11:38;;;;;;;1553.97;999.90;;;12.40;94.50;;;;;;4968241;28;20282;-75
2022/06/07 07:14:08;;;;;;;1962.50;999.90;;;12.60;94.70;;;;;;4967256;28;20278;-75
2022/06/07 07:16:38;;;;;;;1951.90;999.90;;;12.60;93.50;;;;;;4952339;28;20624;-75
2022/06/07 07:19:04;;;;;;;1999.90;999.90;;;12.70;93.70;;;;;;4968840;28;20635;-75
2022/06/07 07:21:34;;;;;;;1999.90;999.90;;;12.80;93.30;;;;;;4950293;28;20283;-76
2022/06/07 07:24:05;;;;;;;1999.90;999.90;;;12.90;92.50;;;;;;4965481;28;20290;-75
2022/06/07 07:26:32;;;;;;;1969.50;999.90;;;13.00;92.70;;;;;;4951858;28;20637;-75
2022/06/07 07:28:59;;;;;;;1978.67;999.90;;;13.10;91.20;;;;;;4966353;28;20278;-75
2022/06/07 07:31:30;;;;;;;1878.63;999.90;;;13.20;91.00;;;;;;4967498;28;20282;-75
2022/06/07 07:33:56;;;;;;;1999.57;999.90;;;13.30;90.30;;;;;;4983985;28;21005;-75
2022/06/07 07:36:22;;;;;;;1887.57;999.90;;;13.40;90.60;;;;;;4951329;28;20293;-75
2022/06/07 07:38:49;;;;;;;1794.97;999.90;;;13.50;88.60;;;;;;4967884;28;20695;-75
2022/06/07 07:41:19;;;;;;;1794.33;999.90;;;13.60;90.00;;;;;;4951617;28;20051;-75
2022/06/07 07:43:46;;;;;;;1874.33;999.90;;;13.60;89.00;;;;;;4959640;28;20311;-75
2022/06/07 07:46:13;;;;;;;1999.90;999.90;;;13.70;88.00;;;;;;4953548;28;20286;-75
2022/06/07 07:48:39;;;;;;;1951.30;999.90;;;13.70;86.20;;;;;;4942615;28;20822;-75
2022/06/07 07:51:06;;;;;;;1838.73;999.90;;;13.60;86.90;;;;;;4948502;28;20309;-74
2022/06/07 07:53:33;;;;;;;1999.90;999.90;;;13.70;87.60;;;;;;4965797;28;20137;-75
2022/06/07 07:55:59;;;;;;;1999.90;999.90;;;13.60;86.80;;;;;;4960685;28;20348;-75
2022/06/07 07:58:25;;;;;;;1999.90;999.90;;;13.60;86.90;;;;;;4956881;28;20294;-74
2022/06/07 08:00:50;;;;;;;1999.90;999.90;;;13.60;86.30;;;;;;4949972;28;20051;-74
2022/06/07 08:03:18;;;;;;;1999.90;999.90;;;13.70;87.90;;;;;;4949424;28;20053;-75
2022/06/07 08:05:44;;;;;;;1790.83;999.90;;;13.70;85.50;;;;;;4962439;28;20050;-75
2022/06/07 08:08:11;;;;;;;1854.23;999.90;;;13.80;87.40;;;;;;4949766;28;20775;-75
2022/06/07 08:10:37;;;;;;;1999.90;999.90;;;13.80;88.10;;;;;;4950052;28;20054;-75
2022/06/07 08:13:03;;;;;;;1871.23;999.90;;;13.80;85.50;;;;;;4950096;28;20381;-75
2022/06/07 08:15:31;;;;;;;1999.90;999.90;;;13.70;86.20;;;;;;4950989;28;20294;-75
2022/06/07 08:17:58;;;;;;;1846.83;999.90;;;13.70;85.90;;;;;;4949572;28;20291;-75
2022/06/07 08:20:24;;;;;;;1636.70;999.90;;;13.70;86.10;;;;;;4964127;28;20290;-74
2022/06/07 08:22:50;;;;;;;1853.77;999.90;;;13.60;84.90;;;;;;4948982;28;20310;-75
2022/06/07 08:25:16;;;;;;;1999.90;999.90;;;13.60;84.80;;;;;;4932591;28;20372;-74
2022/06/07 08:27:42;;;;;;;1999.90;999.90;;;13.60;84.90;;;;;;4967097;28;20286;-75
2022/06/07 08:30:09;;;;;;;1999.90;999.90;;;13.60;82.90;;;;;;4934146;28;20349;-74
2022/06/07 08:32:35;;;;;;;1999.90;999.90;;;13.70;84.70;;;;;;4966962;28;20042;-75
2022/06/07 08:37:46;;;;;;;1999.90;999.90;;;14.00;83.60;;;;;;4965225;28;20298;-75
2022/06/07 08:40:20;;;;;;;1999.90;999.90;;;14.20;83.80;;;;;;4935355;28;20047;-74
2022/06/07 08:42:52;;;;;;;1999.90;999.90;;;14.50;84.30;;;;;;4967379;28;20086;-75
2022/06/07 08:45:26;;;;;;;1999.90;999.90;;;14.80;83.10;;;;;;4967461;28;20426;-74
2022/06/07 08:48:02;;;;;;;1999.90;999.90;;;14.90;80.40;;;;;;4966943;28;21134;-75
2022/06/07 08:50:45;;;;;;;1999.90;999.90;;;15.00;81.20;;;;;;4961490;28;20290;-74
2022/06/07 08:53:35;;;;;;;1999.90;999.90;;;15.00;80.00;;;;;;4966681;28;20865;-74
2022/06/07 08:56:04;;;;;;;1999.90;999.90;;;15.20;83.00;;;;;;4967091;28;20372;-75
2022/06/07 08:58:39;;;;;;;1999.90;999.90;;;15.20;77.60;;;;;;4966015;28;20337;-75
2022/06/07 09:01:31;;;;;;;1986.88;999.90;;;15.40;80.70;;;;;;4947338;29;20294;-74
2022/06/07 09:04:18;;;;;;;1883.27;999.90;;;15.40;78.90;;;;;;4963506;28;20078;-75
2022/06/07 09:06:49;;;;;;;1999.90;999.90;;;15.40;78.40;;;;;;4958934;28;20853;-75
2022/06/07 09:09:18;;;;;;;1941.57;999.90;;;15.30;78.10;;;;;;4966271;28;20323;-75
2022/06/07 09:14:42;;;;;;;1976.97;999.90;;;15.00;77.40;;;;;;4966435;28;20311;-75
2022/06/07 09:17:13;;;;;;;1935.73;999.90;;;15.00;78.10;;;;;;4955631;28;20290;-75
2022/06/07 09:19:39;;;;;;;1999.90;999.90;;;15.10;78.90;;;;;;4966644;28;20278;-75
2022/06/07 09:22:19;;;;;;;1981.00;999.90;;;15.20;77.80;;;;;;4954544;28;20827;-75
2022/06/07 09:25:26;;;;;;;1883.20;999.90;;;15.20;77.00;;;;;;4966953;28;20289;-75
2022/06/07 09:27:52;;;;;;;1647.73;999.90;;;15.20;75.30;;;;;;4929912;29;20640;-75
2022/06/07 09:30:45;;;;;;;1579.93;999.90;;;15.20;76.00;;;;;;4939044;28;20278;-75
2022/06/07 09:33:53;;;;;;;1651.23;999.90;;;15.30;77.00;;;;;;4953090;28;20290;-75
2022/06/07 09:36:28;;;;;;;1532.17;999.90;;;15.50;75.10;;;;;;4917507;28;20867;-75
2022/06/07 09:38:58;;;;;;;1877.90;999.90;;;15.60;74.70;;;;;;4969157;28;20294;-75
2022/06/07 09:41:44;;;;;;;1931.87;999.90;;;15.80;74.60;;;;;;4952198;28;20051;-75
2022/06/07 09:44:34;;;;;;;1999.90;999.90;;;16.00;71.70;;;;;;4957239;28;20839;-75
2022/06/07 09:47:04;;;;;;;1999.90;999.90;;;16.10;70.70;;;;;;4960857;28;20711;-75
2022/06/07 09:49:46;;;;;;;1999.90;999.90;;;16.20;72.40;;;;;;4954035;28;20285;-74
2022/06/07 09:52:20;;;;;;;1999.90;999.90;;;16.30;70.90;;;;;;4962560;28;20630;-75
2022/06/07 09:54:49;;;;;;;1999.90;999.90;;;16.40;69.90;;;;;;4952205;28;20320;-75
2022/06/07 09:57:33;;;;;;;1999.90;999.90;;;16.20;68.20;;;;;;4964904;28;20050;-75
2022/06/07 10:00:30;;;;;;;1904.23;999.90;;;16.10;71.30;;;;;;4968503;28;20758;-75
2022/06/07 10:03:04;;;;;;;1945.27;999.90;;;15.90;69.80;;;;;;4945320;28;20803;-74
2022/06/07 10:05:39;;;;;;;1997.15;999.90;;;15.90;72.30;;;;;;4953583;28;20297;-76
2022/06/07 10:08:20;;;;;;;1900.05;999.90;;;15.90;73.20;;;;;;4950369;29;20051;-74
2022/06/07 10:11:13;;;;;;;1940.27;999.90;;;16.00;74.20;;;;;;4985238;28;20046;-74
2022/06/07 10:13:54;;;;;;;1999.90;999.90;;;16.00;69.80;;;;;;4968836;28;20325;-74
2022/06/07 10:16:36;;;;;;;1704.13;999.90;;;16.00;71.50;;;;;;4953347;28;20290;-74
2022/06/07 10:19:29;;;;;;;1625.73;999.90;;;15.90;72.00;;;;;;4965602;28;20862;-74
2022/06/07 10:22:20;;;;;;;1801.40;999.90;;;15.80;70.90;;;;;;4956578;28;20646;-74
2022/06/07 10:25:11;;;;;;;1662.80;999.90;;;15.80;72.70;;;;;;4953038;28;20337;-74
2022/06/07 10:27:53;;;;;;;1884.00;999.90;;;15.70;74.10;;;;;;4952515;28;20708;-74
2022/06/07 10:30:26;;;;;;;1840.17;999.90;;;15.70;74.00;;;;;;4968938;28;20282;-74
2022/06/07 10:32:58;;;;;;;1818.50;999.90;;;15.40;70.00;;;;;;4960231;28;20833;-74
2022/06/07 10:35:41;;;;;;;1775.73;999.90;;;15.40;71.00;;;;;;4941937;28;20290;-74
2022/06/07 10:38:40;;;;;;;1872.70;999.90;;;15.30;71.90;;;;;;4952922;28;20321;-74
2022/06/07 10:41:36;;;;;;;1595.07;999.90;;;15.40;73.90;;;;;;4960773;28;20290;-74
2022/06/07 10:44:11;;;;;;;1996.60;999.90;;;15.40;71.00;;;;;;4950820;28;20318;-74
2022/06/07 10:46:40;;;;;;;1688.10;999.90;;;15.50;71.30;;;;;;4949912;28;20043;-74
2022/06/07 10:49:23;;;;;;;1633.13;999.90;;;15.60;72.00;;;;;;4936594;28;20054;-75
2022/06/07 10:52:24;;;;;;;1743.47;999.90;;;15.50;70.60;;;;;;4959133;28;20290;-74
2022/06/07 10:54:55;;;;;;;1799.67;999.90;;;15.70;71.70;;;;;;4974796;28;20301;-74
2022/06/07 10:57:29;;;;;;;1901.33;999.90;;;15.90;71.30;;;;;;4967216;28;20294;-74
2022/06/07 10:59:55;;;;;;;1870.20;999.90;;;16.10;72.00;;;;;;4951116;28;20364;-74
2022/06/07 11:02:49;;;;;;;1999.90;999.90;;;16.30;72.10;;;;;;4970235;28;20039;-74
2022/06/07 11:11:23;;;;;;;1990.27;999.90;;;16.70;66.70;;;;;;4976247;28;20373;-74
2022/06/07 11:14:00;;;;;;;1867.97;999.90;;;16.60;69.30;;;;;;4957852;28;20648;-74
2022/06/07 11:16:36;;;;;;;1999.90;999.90;;;16.50;70.80;;;;;;4968822;28;20293;-74
2022/06/07 11:19:04;;;;;;;1999.90;999.90;;;16.30;69.70;;;;;;4968792;28;20281;-74
2022/06/07 11:21:37;;;;;;;1987.13;999.90;;;16.10;70.00;;;;;;4960383;28;20278;-74
2022/06/07 11:24:04;;;;;;;1999.90;999.90;;;16.20;71.90;;;;;;4975338;28;20898;-74
2022/06/07 11:26:58;;;;;;;1999.90;999.90;;;16.30;70.50;;;;;;4970400;28;20405;-75
2022/06/07 11:29:33;;;;;;;1814.10;999.90;;;16.30;67.30;;;;;;4956990;28;20287;-74
2022/06/07 11:32:02;;;;;;;1999.90;999.90;;;16.30;70.10;;;;;;4951455;28;20369;-74
2022/06/07 11:34:37;;;;;;;1999.90;999.90;;;16.20;66.80;;;;;;4966962;28;20290;-74
2022/06/07 11:37:09;;;;;;;1999.90;999.90;;;16.30;68.80;;;;;;4960014;28;20330;-74
2022/06/07 11:39:54;;;;;;;1999.90;999.90;;;16.60;68.80;;;;;;4963256;28;20057;-74
2022/06/07 11:42:28;;;;;;;1999.90;999.90;;;16.80;66.70;;;;;;4949181;29;20800;-74
2022/06/07 11:45:03;;;;;;;1999.90;999.90;;;17.00;68.00;;;;;;4971603;28;20285;-74
2022/06/07 11:47:45;;;;;;;1999.90;999.90;;;16.90;65.00;;;;;;4972357;28;20783;-74
2022/06/07 11:50:26;;;;;;;1999.90;999.90;;;16.90;65.30;;;;;;4957178;28;20729;-74
2022/06/07 11:53:14;;;;;;;1999.90;999.90;;;16.80;66.50;;;;;;4963528;28;20286;-74
2022/06/07 11:55:43;;;;;;;1999.90;999.90;;;16.80;64.80;;;;;;4951759;28;20287;-75
2022/06/07 11:58:10;;;;;;;1999.90;999.90;;;16.40;64.40;;;;;;4956620;28;20295;-74
2022/06/07 12:00:42;;;;;;;1999.90;999.90;;;16.50;66.70;;;;;;4950471;28;20290;-74
2022/06/07 12:03:08;;;;;;;1999.90;999.90;;;16.60;67.10;;;;;;4958929;28;20309;-74
2022/06/07 12:05:37;;;;;;;1999.90;999.90;;;16.60;65.10;;;;;;4981323;28;20373;-74
2022/06/07 12:08:18;;;;;;;1999.90;999.90;;;16.80;65.80;;;;;;4966389;28;20291;-74
2022/06/07 12:11:22;;;;;;;1999.90;999.90;;;17.00;67.80;;;;;;4979074;28;20294;-74
2022/06/07 12:13:56;;;;;;;1999.90;999.90;;;17.20;66.40;;;;;;4928247;28;20334;-74
2022/06/07 12:16:50;;;;;;;1999.90;999.90;;;17.30;68.40;;;;;;4975870;28;20281;-74
2022/06/07 12:19:24;;;;;;;1999.90;999.90;;;17.40;66.80;;;;;;4950951;28;20047;-74
2022/06/07 12:21:57;;;;;;;1999.90;999.90;;;17.50;67.30;;;;;;4952662;28;20289;-74
2022/06/07 12:24:24;;;;;;;1999.90;999.90;;;17.40;67.10;;;;;;4967630;28;20290;-74
2022/06/07 12:26:51;;;;;;;1999.90;999.90;;;17.50;66.50;;;;;;4963325;28;20290;-74
2022/06/07 12:29:26;;;;;;;1934.67;999.90;;;17.80;65.60;;;;;;4950759;28;20286;-75
2022/06/07 12:31:56;;;;;;;1999.90;999.90;;;17.90;65.70;;;;;;4959939;28;20286;-74
2022/06/07 12:34:34;;;;;;;1999.90;999.90;;;17.90;64.70;;;;;;4964239;28;20046;-75
2022/06/07 12:37:03;;;;;;;1999.90;999.90;;;18.00;64.50;;;;;;4971365;28;20102;-74
2022/06/07 12:39:39;;;;;;;1999.90;999.90;;;17.70;62.90;;;;;;4961611;28;20126;-74